tititudorancea.com
Station Historical Data
Daily Summary for April 23, 2018 Units:  Metric    English   Both
« Previous Day
Next Day »
Daily Weekly Monthly Yearly Custom
  High: Low: Average:
Temperature: -17.8 °C 7.1 °C 17.8 °C
Dew Point: -17.8 °C 5.7 °C 7.7 °C
Humidity: Humidity % 25 % 58 %
Wind Speed: 0 km/h 0 km/h 3.7 km/h
Wind Gust: 0 km/h - -
Wind:- - ESE
Pressure: 0 hPa 1013.1 hPa -
Precipitation: 0 mm    
Historical Graphs
 
 
Ararat weather Find more about Weather in Ararat, AU


 



 


Tabular Data for April 23, 2018
Time Temperature Dew Point Pressure Wind Wind Speed Wind Gust Humidity Rainfall Rate (Hourly)
-17.8 °C -17.8 °C 0 hPa Calm     Humidity % 0 mm
00:01 12.4 °C 9.8 °C 1018.5 hPa South 1.8 km/h 5.6 km/h 84 % 0 mm
00:06 12.2 °C 9.6 °C 1018.5 hPa South 1.1 km/h 1.9 km/h 84 % 0 mm
00:11 12 °C 9.6 °C 1018.5 hPa Calm   1.6 km/h 85 % 0 mm
00:16 11.8 °C 9.5 °C 1018.5 hPa Calm     86 % 0 mm
00:21 11.6 °C 9.3 °C 1018.5 hPa North 2.7 km/h 5.6 km/h 86 % 0 mm
00:26 11.6 °C 9.3 °C 1018.5 hPa Calm     86 % 0 mm
00:31 11.4 °C 9.1 °C 1018.5 hPa Calm     86 % 0 mm
00:36 11.2 °C 8.9 °C 1018.5 hPa Calm     86 % 0 mm
00:41 11.1 °C 9 °C 1018.5 hPa Calm     87 % 0 mm
00:46 10.9 °C 8.8 °C 1018.2 hPa Calm     87 % 0 mm
00:51 10.8 °C 8.9 °C 1018.5 hPa Calm     88 % 0 mm
00:56 10.7 °C 8.8 °C 1018.5 hPa Calm     88 % 0 mm
01:01 10.7 °C 8.9 °C 1018.2 hPa Calm     89 % 0 mm
01:06 10.6 °C 8.9 °C 1018.2 hPa Calm     89 % 0 mm
01:11 10.6 °C 9.3 °C 1018.2 hPa Calm     92 % 0 mm
01:16 10.4 °C 8.7 °C 1017.8 hPa Calm     89 % 0 mm
01:21 10.4 °C 8.7 °C 1018.2 hPa South 1.8 km/h 3.7 km/h 89 % 0 mm
01:26 10.3 °C 8.8 °C 1017.8 hPa Calm     90 % 0 mm
01:31 10.3 °C 8.8 °C 1018.2 hPa Calm     90 % 0 mm
01:36 10.2 °C 8.7 °C 1017.8 hPa Calm     90 % 0 mm
01:41 10.1 °C 8.6 °C 1017.8 hPa Calm     90 % 0 mm
01:46 9.9 °C 8.2 °C 1017.8 hPa Calm     89 % 0 mm
01:51 9.8 °C 8.2 °C 1017.8 hPa Calm     90 % 0 mm
01:56 9.6 °C 8.1 °C 1017.8 hPa Calm     90 % 0 mm
02:01 9.4 °C 7.9 °C 1017.8 hPa Calm     90 % 0 mm
02:06 9.3 °C 7.7 °C 1017.8 hPa Calm     90 % 0 mm
02:11 9.2 °C 7.6 °C 1017.8 hPa Calm     90 % 0 mm
02:16 9.1 °C 7.7 °C 1017.8 hPa Calm     91 % 0 mm
02:21 9.1 °C 7.7 °C 1017.8 hPa Calm     91 % 0 mm
02:26 9.1 °C 7.7 °C 1017.8 hPa Calm     91 % 0 mm
02:31 9 °C 7.4 °C 1017.5 hPa Calm     90 % 0 mm
02:36 8.8 °C 7.4 °C 1017.5 hPa Calm     91 % 0 mm
02:41 8.8 °C 7.4 °C 1017.5 hPa Calm     91 % 0 mm
02:46 8.7 °C 7.3 °C 1017.5 hPa Calm     91 % 0 mm
02:51 8.6 °C 7.2 °C 1017.5 hPa Calm     91 % 0 mm
02:56 8.5 °C 7.1 °C 1017.2 hPa Calm     91 % 0 mm
03:01 8.4 °C 7.1 °C 1017.5 hPa Calm     91 % 0 mm
03:06 8.3 °C 6.9 °C 1017.2 hPa Calm     91 % 0 mm
03:11 8.3 °C 7.1 °C 1017.2 hPa Calm     92 % 0 mm
03:16 8.2 °C 7 °C 1017.2 hPa Calm     92 % 0 mm
03:21 8.1 °C 6.7 °C 1017.2 hPa Calm     91 % 0 mm
03:26 8 °C 6.6 °C 1017.2 hPa Calm     91 % 0 mm
03:31 8 °C 6.8 °C 1017.2 hPa Calm     92 % 0 mm
03:36 8.1 °C 6.8 °C 1017.2 hPa Calm     92 % 0 mm
03:41 8.1 °C 6.8 °C 1017.2 hPa Calm     92 % 0 mm
03:46 8 °C 6.8 °C 1017.2 hPa Calm     92 % 0 mm
03:51 7.9 °C 6.7 °C 1017.2 hPa Calm     92 % 0 mm
03:56 7.9 °C 6.7 °C 1017.2 hPa Calm     92 % 0 mm
04:01 7.9 °C 6.8 °C 1016.8 hPa Calm     93 % 0 mm
04:06 7.9 °C 6.9 °C 1016.8 hPa Calm     93 % 0 mm
04:11 7.9 °C 6.7 °C 1016.8 hPa Calm     92 % 0 mm
04:16 7.9 °C 6.8 °C 1016.8 hPa Calm     93 % 0 mm
04:21 8 °C 6.9 °C 1016.8 hPa Calm     93 % 0 mm
04:26 8 °C 6.9 °C 1016.8 hPa Calm     93 % 0 mm
04:31 8.1 °C 7 °C 1016.8 hPa Calm     93 % 0 mm
04:36 8.1 °C 7.1 °C 1016.8 hPa Calm     93 % 0 mm
04:41 8.1 °C 7.1 °C 1016.8 hPa Calm     93 % 0 mm
04:46 8.1 °C 7 °C 1016.8 hPa Calm     93 % 0 mm
04:51 8.1 °C 7 °C 1016.8 hPa Calm     93 % 0 mm
04:56 8 °C 6.9 °C 1016.8 hPa Calm     93 % 0 mm
05:01 7.9 °C 6.9 °C 1016.8 hPa Calm     93 % 0 mm
05:03 7.9 °C 6.9 °C 1016.8 hPa Calm     93 % 0 mm
05:08 7.9 °C 6.8 °C 1016.8 hPa Calm     93 % 0 mm
05:13 7.9 °C 6.8 °C 1016.8 hPa Calm     93 % 0 mm
05:18 7.7 °C 6.6 °C 1016.8 hPa Calm     93 % 0 mm
05:23 7.6 °C 6.6 °C 1016.8 hPa South 1.8 km/h 3.7 km/h 93 % 0 mm
05:28 7.6 °C 6.6 °C 1016.8 hPa Calm     93 % 0 mm
05:33 7.5 °C 6.4 °C 1016.8 hPa Calm     93 % 0 mm
05:38 7.4 °C 6.3 °C 1016.8 hPa Calm     93 % 0 mm
05:43 7.3 °C 6.2 °C 1016.8 hPa Calm     93 % 0 mm
05:48 7.2 °C 6.1 °C 1016.8 hPa Calm     93 % 0 mm
05:53 7.1 °C 6 °C 1016.8 hPa Calm     93 % 0 mm
05:58 7.1 °C 6 °C 1016.8 hPa Calm     93 % 0 mm
06:03 7.2 °C 6.3 °C 1016.8 hPa Calm     94 % 0 mm
06:08 7.2 °C 6.3 °C 1016.8 hPa Calm     94 % 0 mm
06:13 7.2 °C 6.2 °C 1016.8 hPa Calm     93 % 0 mm
06:18 7.3 °C 6.4 °C 1016.8 hPa Calm     94 % 0 mm
06:23 7.5 °C 6.6 °C 1016.8 hPa North 5.5 km/h 5.6 km/h 94 % 0 mm
06:28 8.3 °C 7.7 °C 1016.8 hPa North 4.7 km/h 6.4 km/h 96 % 0 mm
06:33 9 °C 8.4 °C 1016.8 hPa North 6.9 km/h 7.4 km/h 96 % 0 mm
06:38 9.9 °C 9.3 °C 1016.8 hPa South 2.1 km/h 5.6 km/h 96 % 0 mm
06:43 10.1 °C 9.3 °C 1016.8 hPa South 0.2 km/h 5.6 km/h 95 % 0 mm
06:48 10 °C 8.9 °C 1017.2 hPa Calm     93 % 0 mm
06:53 10.1 °C 9.1 °C 1017.2 hPa South 0.6 km/h 3.7 km/h 94 % 0 mm
06:58 10.2 °C 9.1 °C 1017.2 hPa North 3.2 km/h 3.7 km/h 93 % 0 mm
07:03 10 °C 8.8 °C 1017.2 hPa North 2.7 km/h 3.7 km/h 92 % 0 mm
07:08 9.9 °C 8.7 °C 1017.2 hPa Calm   3.7 km/h 92 % 0 mm
07:13 9.8 °C 8.6 °C 1017.2 hPa Calm     92 % 0 mm
07:18 9.7 °C 8.3 °C 1017.2 hPa Calm   1.9 km/h 91 % 0 mm
07:23 9.6 °C 8.2 °C 1017.5 hPa Calm     91 % 0 mm
07:28 9.4 °C 8.1 °C 1017.5 hPa Calm     91 % 0 mm
07:33 9.4 °C 8.1 °C 1017.5 hPa South 1.4 km/h 3.2 km/h 91 % 0 mm
07:38 9.5 °C 8.1 °C 1017.5 hPa South 2.4 km/h 3.7 km/h 91 % 0 mm
07:43 9.6 °C 8.4 °C 1017.5 hPa Calm   1.9 km/h 92 % 0 mm
07:48 9.8 °C 8.6 °C 1017.5 hPa Calm     92 % 0 mm
07:53 10.2 °C 8.9 °C 1017.5 hPa Calm     92 % 0 mm
07:59 10.7 °C 9.6 °C 1017.8 hPa Calm     93 % 0 mm
08:03 11 °C 9.7 °C 1017.8 hPa Calm     92 % 0 mm
08:09 11.6 °C 10.3 °C 1017.8 hPa Calm   1.9 km/h 92 % 0 mm
08:14 12.1 °C 10.7 °C 1017.8 hPa Calm     91 % 0 mm
08:19 12.7 °C 11.1 °C 1017.8 hPa South 0.3 km/h 1.9 km/h 90 % 0 mm
08:24 13.2 °C 11.4 °C 1017.8 hPa Calm     89 % 0 mm
08:29 13.6 °C 11.8 °C 1017.8 hPa Calm     89 % 0 mm
08:33 14.1 °C 11.8 °C 1017.8 hPa Calm     86 % 0 mm
08:38 14.8 °C 11.9 °C 1017.8 hPa Calm     83 % 0 mm
08:43 15.4 °C 12 °C 1017.8 hPa South 3.7 km/h 3.7 km/h 80 % 0 mm
08:48 16 °C 11.6 °C 1017.8 hPa South 1.8 km/h 3.7 km/h 75 % 0 mm
08:54 16.5 °C 11.4 °C 1017.8 hPa South 3.7 km/h 6.4 km/h 72 % 0 mm
08:59 16.9 °C 11.7 °C 1017.8 hPa South 1 km/h 3.7 km/h 71 % 0 mm
09:04 17.4 °C 11.5 °C 1018.2 hPa South 4.7 km/h 7.4 km/h 68 % 0 mm
09:09 17.9 °C 11.9 °C 1018.2 hPa South 2.3 km/h 3.2 km/h 68 % 0 mm
09:14 18.4 °C 11.4 °C 1017.8 hPa South 3.2 km/h 8 km/h 64 % 0 mm
09:19 18.7 °C 11.2 °C 1017.8 hPa South 8.9 km/h 11.1 km/h 62 % 0 mm
09:24 18.9 °C 11.2 °C 1017.8 hPa South 5.3 km/h 7.4 km/h 61 % 0 mm
09:29 19.2 °C 11 °C 1017.8 hPa South 6.6 km/h 11.1 km/h 59 % 0 mm
09:34 19.4 °C 10.9 °C 1017.8 hPa South 7.7 km/h 9.3 km/h 58 % 0 mm
09:39 19.7 °C 10.9 °C 1017.8 hPa South 8 km/h 9.3 km/h 57 % 0 mm
09:44 19.9 °C 10.6 °C 1017.8 hPa South 7.6 km/h 9.3 km/h 55 % 0 mm
09:49 20.2 °C 10.6 °C 1017.8 hPa South 9.8 km/h 13 km/h 54 % 0 mm
09:54 20.6 °C 9.8 °C 1017.8 hPa South 8.9 km/h 14.8 km/h 50 % 0 mm
09:59 20.8 °C 9.7 °C 1017.8 hPa South 9.2 km/h 9.3 km/h 49 % 0 mm
10:04 21.1 °C 10 °C 1017.5 hPa SSE 2.7 km/h 5.6 km/h 49 % 0 mm
10:09 21.4 °C 9.7 °C 1017.5 hPa SE 10.3 km/h 13 km/h 47 % 0 mm
10:14 21.7 °C 9.6 °C 1017.5 hPa ESE 8.2 km/h 13 km/h 46 % 0 mm
10:19 21.7 °C 9.9 °C 1017.5 hPa ESE 7.1 km/h 9.3 km/h 47 % 0 mm
10:24 21.8 °C 9.4 °C 1017.5 hPa East 8.9 km/h 11.1 km/h 45 % 0 mm
10:29 21.9 °C 9.8 °C 1017.5 hPa East 9.2 km/h 11.3 km/h 46 % 0 mm
10:34 22.1 °C 9.6 °C 1017.2 hPa East 6.4 km/h 11.1 km/h 45 % 0 mm
10:39 22.3 °C 9.8 °C 1017.2 hPa East 6.4 km/h 11.3 km/h 45 % 0 mm
10:44 22.5 °C 9.6 °C 1017.2 hPa ENE 6.1 km/h 9.3 km/h 44 % 0 mm
10:49 22.7 °C 9.5 °C 1017.2 hPa East 5.8 km/h 11.1 km/h 43 % 0 mm
10:54 23 °C 10.1 °C 1017.2 hPa ENE 6 km/h 9.7 km/h 44 % 0 mm
10:59 23.1 °C 9.5 °C 1016.8 hPa ENE 7.4 km/h 7.4 km/h 42 % 0 mm
11:04 23.4 °C 9.8 °C 1016.8 hPa ENE 10.3 km/h 11.3 km/h 42 % 0 mm
11:09 23.6 °C 9.9 °C 1016.8 hPa ENE 5.3 km/h 7.4 km/h 42 % 0 mm
11:14 23.8 °C 9.4 °C 1016.8 hPa NE 8.5 km/h 13 km/h 40 % 0 mm
11:19 23.8 °C 9.8 °C 1016.8 hPa NE 3.4 km/h 7.4 km/h 41 % 0 mm
11:24 24 °C 9.6 °C 1016.8 hPa NE 4.5 km/h 6.4 km/h 40 % 0 mm
11:29 24.1 °C 9.7 °C 1016.5 hPa NE 7.1 km/h 9.3 km/h 40 % 0 mm
11:34 24.3 °C 9.4 °C 1016.5 hPa NE 6.6 km/h 11.3 km/h 39 % 0 mm
11:39 24.4 °C 9.6 °C 1016.5 hPa NE 5.8 km/h 7.4 km/h 39 % 0 mm
11:44 24.6 °C 9.3 °C 1016.5 hPa NE 5.8 km/h 7.4 km/h 38 % 0 mm
11:49 24.9 °C 8.8 °C 1016.5 hPa NE 10.1 km/h 16.7 km/h 36 % 0 mm
11:54 25.2 °C 9.1 °C 1016.5 hPa NE 7.4 km/h 11.1 km/h 36 % 0 mm
11:59 25.4 °C 8.8 °C 1016.1 hPa NE 8 km/h 11.3 km/h 35 % 0 mm
12:04 25.4 °C 8.8 °C 1016.1 hPa NE 6.3 km/h 14.8 km/h 35 % 0 mm
12:09 25.9 °C 8.8 °C 1016.1 hPa NNE 10.8 km/h 16.7 km/h 34 % 0 mm
12:14 25.8 °C 8.3 °C 1016.1 hPa NNE 13.5 km/h 16.7 km/h 33 % 0 mm
12:19 25.8 °C 8.3 °C 1016.1 hPa NNE 9.5 km/h 14.8 km/h 33 % 0 mm
12:22 25.9 °C 8.8 °C 1015.8 hPa NNE 9 km/h 13 km/h 34 % 0 mm
12:27 26.2 °C 8.2 °C 1015.8 hPa NNE 10.9 km/h 18.5 km/h 32 % 0 mm
12:32 26.3 °C 8.3 °C 1015.8 hPa North 9.5 km/h 14.8 km/h 32 % 0 mm
12:37 26.3 °C 8.3 °C 1015.8 hPa NNE 7.9 km/h 16.7 km/h 32 % 0 mm
12:42 26.7 °C 8.1 °C 1015.5 hPa North 11.3 km/h 16.7 km/h 31 % 0 mm
12:47 26.6 °C 8.1 °C 1015.5 hPa NNW 9 km/h 13 km/h 31 % 0 mm
12:52 26.4 °C 8.4 °C 1015.5 hPa NNW 6.4 km/h 11.1 km/h 32 % 0 mm
12:57 26.6 °C 8.6 °C 1015.1 hPa North 8.5 km/h 16.7 km/h 32 % 0 mm
13:02 26.8 °C 8.3 °C 1015.1 hPa North 7.2 km/h 12.9 km/h 31 % 0 mm
13:07 27.2 °C 8.1 °C 1015.1 hPa North 10.3 km/h 14.8 km/h 30 % 0 mm
13:12 27.1 °C 7.6 °C 1014.8 hPa North 8.9 km/h 14.5 km/h 29 % 0 mm
13:17 27.2 °C 7.6 °C 1014.8 hPa North 11.6 km/h 14.8 km/h 29 % 0 mm
13:22 27.3 °C 7.2 °C 1014.8 hPa North 12.9 km/h 20.4 km/h 28 % 0 mm
13:27 27.2 °C 7.1 °C 1014.4 hPa NW 13.4 km/h 18.5 km/h 28 % 0 mm
13:32 27.1 °C 7 °C 1014.4 hPa NNW 9.8 km/h 14.8 km/h 28 % 0 mm
13:37 27.1 °C 7 °C 1014.4 hPa North 8.2 km/h 18.5 km/h 28 % 0 mm
13:42 27.4 °C 7.3 °C 1014.1 hPa North 8.2 km/h 13 km/h 28 % 0 mm
13:47 27.5 °C 6.8 °C 1014.1 hPa North 13.4 km/h 18.5 km/h 27 % 0 mm
13:52 27.6 °C 6.9 °C 1014.1 hPa NNW 9 km/h 14.8 km/h 27 % 0 mm
13:57 27.7 °C 6.9 °C 1014.1 hPa North 13 km/h 20.4 km/h 27 % 0 mm
14:02 27.6 °C 6.4 °C 1014.1 hPa NNW 12.7 km/h 18.5 km/h 26 % 0 mm
14:07 27.7 °C 6.4 °C 1014.1 hPa NNW 12.4 km/h 20.4 km/h 26 % 0 mm
14:12 27.8 °C 6.5 °C 1013.8 hPa NNW 15.9 km/h 20.4 km/h 26 % 0 mm
14:17 27.8 °C 6.6 °C 1013.8 hPa North 14.6 km/h 18.5 km/h 26 % 0 mm
14:22 27.7 °C 6.4 °C 1013.8 hPa NW 12.6 km/h 16.7 km/h 26 % 0 mm
14:27 27.9 °C 6.7 °C 1013.8 hPa North 16.4 km/h 25.9 km/h 26 % 0 mm
14:32 27.9 °C 6.6 °C 1013.8 hPa North 14.3 km/h 27.8 km/h 26 % 0 mm
14:37 27.9 °C 6.6 °C 1013.8 hPa NNW 11.6 km/h 16.7 km/h 26 % 0 mm
14:42 28 °C 6.7 °C 1013.4 hPa NNE 14.6 km/h 22.2 km/h 26 % 0 mm
14:47 28.1 °C 6.8 °C 1013.4 hPa NNW 11.7 km/h 18.5 km/h 26 % 0 mm
14:52 28 °C 6.7 °C 1013.4 hPa North 12.6 km/h 18.5 km/h 26 % 0 mm
14:57 28 °C 6.7 °C 1013.4 hPa North 12.6 km/h 20.4 km/h 26 % 0 mm
15:02 28.1 °C 6.7 °C 1013.4 hPa North 18.5 km/h 27.8 km/h 26 % 0 mm
15:07 27.9 °C 6.7 °C 1013.8 hPa NNW 14 km/h 20.4 km/h 26 % 0 mm
15:12 27.8 °C 6.6 °C 1013.8 hPa North 15.3 km/h 22.2 km/h 26 % 0 mm
15:17 28 °C 6.7 °C 1013.8 hPa NNW 9 km/h 13 km/h 26 % 0 mm
15:22 28.1 °C 6.8 °C 1013.8 hPa North 10.8 km/h 14.8 km/h 26 % 0 mm
15:27 28.2 °C 6.8 °C 1013.8 hPa North 14.6 km/h 20.4 km/h 26 % 0 mm
15:32 28.3 °C 7 °C 1013.8 hPa North 11.9 km/h 18.5 km/h 26 % 0 mm
15:37 28.4 °C 6.5 °C 1013.8 hPa North 10.8 km/h 14.8 km/h 25 % 0 mm
15:42 28.3 °C 7 °C 1013.8 hPa North 6.8 km/h 13 km/h 26 % 0 mm
15:47 28.3 °C 6.4 °C 1013.8 hPa NW 14.2 km/h 18.5 km/h 25 % 0 mm
15:52 28.3 °C 6.9 °C 1013.4 hPa North 8.5 km/h 11.1 km/h 26 % 0 mm
15:57 28.3 °C 6.4 °C 1013.4 hPa NNE 17.1 km/h 24.1 km/h 25 % 0 mm
16:02 28.2 °C 6.3 °C 1013.4 hPa NNE 11.1 km/h 16.7 km/h 25 % 0 mm
16:07 28.2 °C 6.3 °C 1013.4 hPa NNE 12.9 km/h 18.5 km/h 25 % 0 mm
16:12 28.2 °C 6.9 °C 1013.4 hPa NNE 3.7 km/h 5.6 km/h 26 % 0 mm
16:17 28.3 °C 6.9 °C 1013.4 hPa North 8.4 km/h 8.4 km/h 26 % 0 mm
16:22 28.2 °C 6.9 °C 1013.4 hPa North 8 km/h 13 km/h 26 % 0 mm
16:27 28.1 °C 6.2 °C 1013.4 hPa NNE 11.9 km/h 18.5 km/h 25 % 0 mm
16:32 28 °C 6.7 °C 1013.4 hPa NNE 7.2 km/h 14.8 km/h 26 % 0 mm
16:37 27.9 °C 6.7 °C 1013.1 hPa North 9.7 km/h 13 km/h 26 % 0 mm
16:42 27.8 °C 6.5 °C 1013.1 hPa NNE 7.6 km/h 13 km/h 26 % 0 mm
16:46 27.7 °C 6.4 °C 1013.1 hPa NNE 8.9 km/h 14.8 km/h 26 % 0 mm
16:51 27.6 °C 6.3 °C 1013.1 hPa NNE 11.7 km/h 16.7 km/h 26 % 0 mm
16:56 27.4 °C 6.2 °C 1013.1 hPa North 8.2 km/h 13 km/h 26 % 0 mm
17:01 27.3 °C 6.1 °C 1013.1 hPa North 9.8 km/h 14.8 km/h 26 % 0 mm
17:06 27.3 °C 6.1 °C 1013.1 hPa NNE 5 km/h 13 km/h 26 % 0 mm
17:11 27.2 °C 6.6 °C 1013.1 hPa NNE 6 km/h 9.3 km/h 27 % 0 mm
17:16 27 °C 6.4 °C 1013.1 hPa NNE 1 km/h 3.7 km/h 27 % 0 mm
17:21 26.8 °C 6.3 °C 1013.1 hPa NNE 1.4 km/h 3.7 km/h 27 % 0 mm
17:26 26.6 °C 6.6 °C 1013.1 hPa Calm     28 % 0 mm
17:31 26.3 °C 6.8 °C 1013.1 hPa NNE 0.8 km/h 3.7 km/h 29 % 0 mm
17:36 26 °C 6.6 °C 1013.1 hPa Calm     29 % 0 mm
17:41 25.7 °C 7.3 °C 1013.1 hPa Calm     31 % 0 mm
17:46 25.3 °C 7.4 °C 1013.1 hPa Calm     32 % 0 mm
17:51 24.8 °C 7.9 °C 1013.1 hPa Calm     34 % 0 mm
17:56 24.2 °C 7.3 °C 1013.1 hPa Calm     34 % 0 mm
18:01 23.3 °C 7.8 °C 1013.1 hPa Calm     37 % 0 mm
18:06 22.6 °C 7.6 °C 1013.1 hPa Calm     38 % 0 mm
18:11 21.9 °C 7.7 °C 1013.1 hPa NNE 1.9 km/h 3.7 km/h 40 % 0 mm
18:16 21.7 °C 7.9 °C 1013.4 hPa Calm     41 % 0 mm
18:21 21.5 °C 8.1 °C 1013.4 hPa Calm     42 % 0 mm
18:26 20.9 °C 8.2 °C 1013.4 hPa NNE 1 km/h 5.6 km/h 44 % 0 mm
18:31 20.5 °C 8.2 °C 1013.4 hPa NNE 2.4 km/h 5.6 km/h 45 % 0 mm
18:37 20.4 °C 8.1 °C 1013.4 hPa NNE 2.3 km/h 5.6 km/h 45 % 0 mm
18:42 20.3 °C 8.6 °C 1013.4 hPa Calm     47 % 0 mm
18:47 19.9 °C 8.3 °C 1013.8 hPa Calm     47 % 0 mm
18:51 19.6 °C 8.3 °C 1013.8 hPa NNE 1.8 km/h 1.9 km/h 48 % 0 mm
18:52 19.6 °C 8.2 °C 1013.8 hPa Calm     48 % 0 mm
18:53 19.6 °C 8.2 °C 1013.8 hPa Calm     48 % 0 mm
18:54 19.6 °C 8.2 °C 1013.8 hPa Calm     48 % 0 mm
18:57 19.6 °C 8.2 °C 1013.4 hPa Calm     48 % 0 mm
18:59 19.5 °C 8.2 °C 1013.8 hPa Calm     48 % 0 mm
19:00 19.5 °C 8.5 °C 1013.4 hPa Calm     49 % 0 mm
19:01 19.4 °C 8.4 °C 1013.8 hPa Calm     49 % 0 mm
19:02 19.4 °C 8.4 °C 1013.8 hPa Calm     49 % 0 mm
19:03 19.2 °C 8.5 °C 1013.8 hPa Calm     50 % 0 mm
19:05 19.1 °C 8.1 °C 1013.8 hPa Calm     49 % 0 mm
19:06 19 °C 8.1 °C 1013.8 hPa Calm     49 % 0 mm
19:07 18.9 °C 8 °C 1013.8 hPa Calm     49 % 0 mm
19:08 18.9 °C 8 °C 1013.8 hPa Calm     49 % 0 mm
19:10 18.9 °C 8 °C 1013.8 hPa Calm     49 % 0 mm
19:12 18.9 °C 8.3 °C 1013.8 hPa Calm     50 % 0 mm
19:14 18.9 °C 8.2 °C 1013.8 hPa Calm     50 % 0 mm
19:15 18.8 °C 8.4 °C 1013.8 hPa Calm     51 % 0 mm
19:16 18.8 °C 8.4 °C 1013.8 hPa Calm     51 % 0 mm
19:17 18.6 °C 8.3 °C 1013.8 hPa Calm     51 % 0 mm
19:20 18.3 °C 8.3 °C 1013.8 hPa Calm     52 % 0 mm
19:26 18.1 °C 8.1 °C 1013.8 hPa Calm     52 % 0 mm
19:27 18 °C 8.3 °C 1013.8 hPa NNE 0.5 km/h 1.6 km/h 53 % 0 mm
19:28 18 °C 8.3 °C 1013.8 hPa NNE 1.4 km/h 1.9 km/h 53 % 0 mm
19:34 17.9 °C 8.2 °C 1013.8 hPa Calm     53 % 0 mm
19:37 17.8 °C 8.1 °C 1013.8 hPa Calm     53 % 0 mm
19:43 17.8 °C 8.1 °C 1013.8 hPa Calm     53 % 0 mm
19:48 17.8 °C 7.8 °C 1013.8 hPa NNE 1.9 km/h 3.7 km/h 52 % 0 mm
19:53 17.8 °C 7.8 °C 1013.8 hPa NNE 1.9 km/h 3.7 km/h 52 % 0 mm
19:58 17.8 °C 7.8 °C 1013.8 hPa NNE 0.5 km/h 1.9 km/h 52 % 0 mm
20:04 17.6 °C 7.3 °C 1013.4 hPa Calm     51 % 0 mm
20:10 17.4 °C 7.2 °C 1013.8 hPa NNE 0.3 km/h 1.9 km/h 51 % 0 mm
20:15 17.3 °C 7.3 °C 1013.4 hPa NNE 3.7 km/h 5.6 km/h 52 % 0 mm
20:18 17.2 °C 7.2 °C 1013.4 hPa NNE 3.1 km/h 5.6 km/h 52 % 0 mm
20:26 17.1 °C 7.2 °C 1013.4 hPa NNE 0.3 km/h 3.7 km/h 52 % 0 mm
20:27 17.1 °C 7.4 °C 1013.4 hPa NNE 0.5 km/h 3.7 km/h 53 % 0 mm
20:29 16.9 °C 7 °C 1013.4 hPa NNE 0.2 km/h 1.9 km/h 52 % 0 mm
20:30 16.9 °C 7.2 °C 1013.4 hPa NNE 0.8 km/h 1.9 km/h 53 % 0 mm
20:31 16.9 °C 6.9 °C 1013.4 hPa NNE 0.2 km/h 1.9 km/h 52 % 0 mm
20:33 16.9 °C 7.2 °C 1013.4 hPa NNE 0.3 km/h 1.9 km/h 53 % 0 mm
20:35 16.8 °C 6.9 °C 1013.4 hPa NNE 0.2 km/h 1.9 km/h 52 % 0 mm
20:36 16.8 °C 6.9 °C 1013.4 hPa NNE 2.1 km/h 3.2 km/h 52 % 0 mm
20:42 16.6 °C 7.3 °C 1013.4 hPa NNE 2.4 km/h 3.7 km/h 54 % 0 mm
20:44 16.4 °C 6.8 °C 1013.4 hPa NNE 2.3 km/h 5.6 km/h 53 % 0 mm
20:45 16.4 °C 6.8 °C 1013.4 hPa NNE 2.7 km/h 5.6 km/h 53 % 0 mm
20:47 16.5 °C 6.9 °C 1013.4 hPa NNE 4.3 km/h 5.6 km/h 53 % 0 mm
20:49 16.6 °C 6.9 °C 1013.4 hPa NNE 1.9 km/h 5.6 km/h 53 % 0 mm
20:50 16.7 °C 6.8 °C 1013.4 hPa NNE 1.1 km/h 3.7 km/h 52 % 0 mm
20:52 16.8 °C 6.6 °C 1013.4 hPa NNE 3.5 km/h 6.4 km/h 51 % 0 mm
20:54 17 °C 6.8 °C 1013.4 hPa NNE 3.1 km/h 5.6 km/h 51 % 0 mm
20:57 17.1 °C 6.6 °C 1013.4 hPa NNE 1 km/h 1.6 km/h 50 % 0 mm
20:59 17.3 °C 6.5 °C 1013.4 hPa NNE 3.7 km/h 5.6 km/h 49 % 0 mm
21:02 17.4 °C 6.6 °C 1013.4 hPa NNE 2.9 km/h 5.6 km/h 49 % 0 mm
21:07 17.6 °C 6.7 °C 1013.4 hPa NNE 2.3 km/h 3.7 km/h 49 % 0 mm
21:12 17.7 °C 6.5 °C 1013.4 hPa NNE 0.6 km/h 3.7 km/h 48 % 0 mm
21:17 18 °C 6.5 °C 1013.8 hPa NNE 2.1 km/h 5.6 km/h 47 % 0 mm
21:22 18.6 °C 6.4 °C 1013.4 hPa NNE 2.9 km/h 5.6 km/h 45 % 0 mm
21:27 19.1 °C 6.5 °C 1013.4 hPa NNE 3.4 km/h 5.6 km/h 44 % 0 mm
21:32 19.3 °C 6.4 °C 1013.4 hPa NNE 5.8 km/h 7.4 km/h 43 % 0 mm
21:37 19.7 °C 6.4 °C 1013.4 hPa NNE 5.1 km/h 7.4 km/h 42 % 0 mm
21:42 20 °C 6 °C 1013.4 hPa NNE 4.8 km/h 7.4 km/h 40 % 0 mm
21:46 20.1 °C 6.1 °C 1013.4 hPa NNE 3.5 km/h 5.6 km/h 40 % 0 mm
21:50 20 °C 6.3 °C 1013.8 hPa NNE 3.1 km/h 5.6 km/h 41 % 0 mm
21:55 19.8 °C 6.5 °C 1013.8 hPa Calm   1.9 km/h 42 % 0 mm
22:00 19.4 °C 6.2 °C 1013.4 hPa NNE 1.4 km/h 3.2 km/h 42 % 0 mm
22:05 19.2 °C 6.3 °C 1013.4 hPa NNE 1.1 km/h 1.9 km/h 43 % 0 mm
22:10 18.9 °C 6.4 °C 1013.4 hPa NNE 4.2 km/h 5.6 km/h 44 % 0 mm
22:15 18.8 °C 6.3 °C 1013.4 hPa NNE 0.2 km/h 3.7 km/h 44 % 0 mm
22:16 18.8 °C 5.9 °C 1013.4 hPa NNE 0.3 km/h 1.9 km/h 43 % 0 mm
22:21 18.8 °C 6.3 °C 1013.4 hPa NNE 1.4 km/h 3.7 km/h 44 % 0 mm
22:26 18.7 °C 6.2 °C 1013.1 hPa Calm   1.9 km/h 44 % 0 mm
22:31 18.5 °C 6.3 °C 1013.1 hPa NNE 4.3 km/h 5.6 km/h 45 % 0 mm
22:36 18.5 °C 6 °C 1013.1 hPa NNE 6.3 km/h 6.4 km/h 44 % 0 mm
22:41 18.8 °C 5.9 °C 1013.1 hPa NNE 3.7 km/h 5.6 km/h 43 % 0 mm
22:46 19.2 °C 6 °C 1013.1 hPa NNE 6 km/h 7.4 km/h 42 % 0 mm
22:51 19.4 °C 5.8 °C 1013.1 hPa NNE 5.5 km/h 7.4 km/h 41 % 0 mm
22:56 19.8 °C 5.8 °C 1013.1 hPa NNE 6 km/h 7.4 km/h 40 % 0 mm
23:01 19.9 °C 5.9 °C 1013.4 hPa NNE 4.5 km/h 7.4 km/h 40 % 0 mm
23:06 19.8 °C 5.8 °C 1013.1 hPa NNE 5.5 km/h 6.4 km/h 40 % 0 mm
23:11 19.8 °C 5.8 °C 1013.1 hPa NNE 6.8 km/h 9.3 km/h 40 % 0 mm
23:16 20.1 °C 6.1 °C 1013.1 hPa NNE 4 km/h 5.6 km/h 40 % 0 mm
23:21 20.2 °C 5.8 °C 1013.1 hPa NNE 2.9 km/h 5.6 km/h 39 % 0 mm
23:26 20.2 °C 5.8 °C 1013.1 hPa NNE 3.5 km/h 5.6 km/h 39 % 0 mm
23:31 20.1 °C 5.7 °C 1013.1 hPa NNE 4.3 km/h 6.4 km/h 39 % 0 mm
23:36 20 °C 6 °C 1013.1 hPa NNE 4.2 km/h 7.4 km/h 40 % 0 mm
23:41 19.9 °C 5.9 °C 1013.1 hPa NNE 3.4 km/h 5.6 km/h 40 % 0 mm
23:44 19.9 °C 5.9 °C 1013.1 hPa NNE 3.2 km/h 5.6 km/h 40 % 0 mm
23:49 19.9 °C 5.9 °C 1013.1 hPa NNE 3.9 km/h 5.6 km/h 40 % 0 mm
23:54 19.9 °C 5.9 °C 1013.1 hPa NNE 2.9 km/h 5.6 km/h 40 % 0 mm
23:59 19.8 °C 5.8 °C 1013.1 hPa NNE 4.8 km/h 5.6 km/h 40 % 0 mm
Ararat Weather
Compliments of Weather Underground - 2.5 mb
Click here to send mail.


ABOUT

Live weather data from Ararat, Victoria, Australia, 3377
Data uploaded from Cumulus every 5 minutes to Weather Underground.
This site then downloads the raw data for formatting and display.
Metric and imperial data can be displayed. Graphs and historical data available.
Includes Sun and Moon times and rain image live from BOM.

Check out Ararat Weather on Facebook, Twitter and Google +

Help support ongoing costs by checking out the ads





Follow @AraratWeather